createdAt,value
2023-05-09T00:00:00.411Z,96174.53
2023-05-09T00:02:03.334Z,96172.63
2023-05-09T00:04:06.241Z,96095.81
2023-05-09T00:06:09.175Z,96168.84
2023-05-09T00:08:12.010Z,96172.63
2023-05-09T00:10:15.315Z,96172.63
2023-05-09T00:12:19.388Z,96174.50
2023-05-09T00:14:22.180Z,96179.91
2023-05-09T00:16:25.338Z,96169.66
2023-05-09T00:18:30.979Z,96161.28
2023-05-09T00:20:34.943Z,96162.31
2023-05-09T00:22:37.694Z,96162.31
2023-05-09T00:24:40.492Z,96156.09
2023-05-09T00:26:43.229Z,96153.97
2023-05-09T00:28:47.329Z,96159.09
2023-05-09T00:30:50.983Z,96122.00
2023-05-09T00:32:53.783Z,96168.81
2023-05-09T00:34:56.616Z,96155.56
2023-05-09T00:36:59.350Z,96158.00
2023-05-09T00:39:02.132Z,96164.91
2023-05-09T00:41:05.232Z,96164.66
2023-05-09T00:43:07.977Z,96139.47
2023-05-09T00:45:12.933Z,96121.59
2023-05-09T00:47:15.843Z,96161.59
2023-05-09T00:49:18.591Z,96154.63
2023-05-09T00:51:22.329Z,96152.50
2023-05-09T00:53:25.762Z,96149.41
2023-05-09T00:55:28.618Z,96145.94
2023-05-09T00:57:31.386Z,96148.31
2023-05-09T00:59:34.388Z,96065.38
2023-05-09T01:01:38.725Z,96144.53
2023-05-09T01:03:42.382Z,96148.63
2023-05-09T01:05:53.575Z,96096.56
2023-05-09T01:08:04.137Z,96139.38
2023-05-09T01:10:12.732Z,96141.63
2023-05-09T01:12:25.690Z,96139.53
2023-05-09T01:14:38.735Z,96135.78
2023-05-09T01:16:49.991Z,96133.91
2023-05-09T01:19:01.424Z,96123.94
2023-05-09T01:21:08.711Z,96119.59
2023-05-09T01:23:32.696Z,96120.69
2023-05-09T01:25:45.710Z,96121.47
2023-05-09T01:27:54.692Z,96109.31
2023-05-09T01:30:00.606Z,96117.44
2023-05-09T01:32:05.875Z,96113.66
2023-05-09T01:34:11.256Z,96113.59
2023-05-09T01:36:18.341Z,96110.13
2023-05-09T01:38:24.741Z,96117.84
2023-05-09T01:40:32.320Z,96098.16
2023-05-09T01:42:41.940Z,96117.38
2023-05-09T01:44:47.067Z,96110.41
2023-05-09T01:46:53.060Z,96110.41
2023-05-09T01:48:57.197Z,96121.22
2023-05-09T01:51:01.708Z,96044.44
2023-05-09T01:53:07.563Z,96120.44
2023-05-09T01:55:11.967Z,96103.41
2023-05-09T01:57:16.049Z,96101.25
2023-05-09T01:59:19.512Z,96105.84
2023-05-09T02:01:23.661Z,96105.84
2023-05-09T02:03:28.816Z,96106.13
2023-05-09T02:05:32.983Z,96111.25
2023-05-09T02:07:37.253Z,96107.75
2023-05-09T02:09:40.243Z,96110.44
2023-05-09T02:11:42.967Z,96099.63
2023-05-09T02:13:45.750Z,96106.13
2023-05-09T02:15:48.985Z,96100.72
2023-05-09T02:17:53.050Z,96105.31
2023-05-09T02:19:57.274Z,96095.84
2023-05-09T02:22:00.526Z,96060.69
2023-05-09T02:24:03.286Z,96103.66
2023-05-09T02:26:07.571Z,96096.38
2023-05-09T02:28:10.998Z,96100.16
2023-05-09T02:30:20.616Z,96073.66
2023-05-09T02:32:26.781Z,96056.91
2023-05-09T02:34:29.638Z,96093.13
2023-05-09T02:36:33.960Z,96064.47
2023-05-09T02:38:37.297Z,96078.81
2023-05-09T02:40:40.794Z,96082.31
2023-05-09T02:42:43.497Z,96079.63
2023-05-09T02:44:46.543Z,95998.25
2023-05-09T02:46:49.429Z,96079.88
2023-05-09T02:48:52.556Z,96076.34
2023-05-09T02:50:55.853Z,96086.63
2023-05-09T02:52:59.952Z,96075.81
2023-05-09T02:55:03.465Z,96025.53
2023-05-09T02:57:07.634Z,96079.59
2023-05-09T02:59:10.621Z,96072.56
2023-05-09T03:01:13.971Z,96073.09
2023-05-09T03:03:18.027Z,96080.66
2023-05-09T03:05:21.796Z,96067.44
2023-05-09T03:07:24.576Z,96067.16
2023-05-09T03:09:28.753Z,96063.66
2023-05-09T03:11:31.708Z,96087.94
2023-05-09T03:13:34.466Z,96062.28
2023-05-09T03:15:38.307Z,96064.41
2023-05-09T03:17:42.026Z,96056.72
2023-05-09T03:19:44.835Z,96056.47
2023-05-09T03:21:47.573Z,96062.22
2023-05-09T03:23:50.776Z,96063.28
2023-05-09T03:25:54.975Z,96059.81
2023-05-09T03:27:57.985Z,96060.63
2023-05-09T03:30:00.709Z,96056.31
2023-05-09T03:32:03.747Z,96053.88
2023-05-09T03:34:06.496Z,96060.66
2023-05-09T03:36:10.023Z,96062.00
2023-05-09T03:38:14.659Z,96058.22
2023-05-09T03:40:17.584Z,96060.09
2023-05-09T03:42:27.618Z,96052.00
2023-05-09T03:44:34.587Z,96047.69
2023-05-09T03:46:37.346Z,96050.94
2023-05-09T03:48:40.202Z,96043.09
2023-05-09T03:50:43.078Z,96044.47
2023-05-09T03:52:47.950Z,96041.50
2023-05-09T03:54:53.034Z,96046.34
2023-05-09T03:56:55.932Z,96044.47
2023-05-09T03:59:00.561Z,96040.94
2023-05-09T04:01:04.154Z,96019.31
2023-05-09T04:03:06.963Z,96041.50
2023-05-09T04:05:15.468Z,96045.28
2023-05-09T04:07:19.044Z,96042.81
2023-05-09T04:09:22.683Z,96037.41
2023-05-09T04:11:25.647Z,96038.78
2023-05-09T04:13:30.047Z,96044.72
2023-05-09T04:15:36.041Z,96033.91
2023-05-09T04:17:39.208Z,96011.22
2023-05-09T04:19:41.996Z,96031.78
2023-05-09T04:21:45.426Z,96033.38
2023-05-09T04:23:48.702Z,96036.31
2023-05-09T04:25:56.844Z,96038.75
2023-05-09T04:27:59.620Z,96028.53
2023-05-09T04:30:02.887Z,96035.03
2023-05-09T04:32:07.366Z,96033.41
2023-05-09T04:34:10.855Z,96029.91
2023-05-09T04:36:14.554Z,96042.31
2023-05-09T04:38:17.989Z,96034.22
2023-05-09T04:40:20.956Z,96029.91
2023-05-09T04:42:33.383Z,96016.69
2023-05-09T04:44:36.546Z,96028.84
2023-05-09T04:46:39.714Z,96025.34
2023-05-09T04:48:44.552Z,96020.75
2023-05-09T04:50:48.372Z,96026.16
2023-05-09T04:52:51.120Z,96029.94
2023-05-09T04:54:53.841Z,96033.44
2023-05-09T04:57:09.892Z,96028.56
2023-05-09T04:59:21.272Z,96031.53
2023-05-09T05:01:24.025Z,96033.16
2023-05-09T05:03:27.396Z,96045.31
2023-05-09T05:05:34.492Z,96038.03
2023-05-09T05:07:40.477Z,95954.00
2023-05-09T05:09:43.659Z,96041.78
2023-05-09T05:11:58.435Z,96041.22
2023-05-09T05:14:03.856Z,96033.97
2023-05-09T05:16:06.924Z,96035.25
2023-05-09T05:18:09.846Z,96033.38
2023-05-09T05:20:12.866Z,96033.41
2023-05-09T05:22:21.638Z,96028.31
2023-05-09T05:24:24.396Z,96026.69
2023-05-09T05:26:27.452Z,96025.03
2023-05-09T05:28:30.578Z,96025.03
2023-05-09T05:30:34.481Z,96031.53
2023-05-09T05:32:38.277Z,96028.28
2023-05-09T05:34:41.423Z,96030.44
2023-05-09T05:36:44.304Z,96021.81
2023-05-09T05:38:48.698Z,96030.19
2023-05-09T05:40:51.411Z,96021.81
2023-05-09T05:42:55.829Z,96023.16
2023-05-09T05:45:04.194Z,96018.59
2023-05-09T05:47:08.717Z,96027.22
2023-05-09T05:49:11.471Z,96023.97
2023-05-09T05:51:14.241Z,96028.31
2023-05-09T05:53:18.041Z,95996.16
2023-05-09T05:55:22.105Z,96022.34
2023-05-09T05:57:24.888Z,96003.97
2023-05-09T05:59:28.366Z,96025.59
2023-05-09T06:01:31.240Z,96015.31
2023-05-09T06:03:34.637Z,96022.88
2023-05-09T06:05:43.324Z,96012.59
2023-05-09T06:07:46.973Z,96000.16
2023-05-09T06:09:49.681Z,96007.16
2023-05-09T06:11:54.783Z,96004.97
2023-05-09T06:13:57.556Z,95995.78
2023-05-09T06:16:14.950Z,95991.94
2023-05-09T06:18:21.221Z,95991.94
2023-05-09T06:20:23.998Z,95987.00
2023-05-09T06:22:26.798Z,95997.22
2023-05-09T06:24:35.631Z,95995.56
2023-05-09T06:26:40.485Z,95997.13
2023-05-09T06:28:44.567Z,95997.63
2023-05-09T06:30:47.358Z,95997.88
2023-05-09T06:32:50.165Z,95997.06
2023-05-09T06:34:52.969Z,95996.63
2023-05-09T06:36:55.695Z,95999.25
2023-05-09T06:38:58.385Z,95995.78
2023-05-09T06:41:01.089Z,95988.97
2023-05-09T06:43:03.890Z,95991.38
2023-05-09T06:45:09.105Z,95990.28
2023-05-09T06:47:12.311Z,95978.63
2023-05-09T06:49:15.024Z,95957.81
2023-05-09T06:51:17.693Z,95976.94
2023-05-09T06:53:20.385Z,95975.00
2023-05-09T06:55:23.054Z,95894.56
2023-05-09T06:57:25.969Z,95969.78
2023-05-09T06:59:28.756Z,95903.94
2023-05-09T07:01:32.846Z,95948.16
2023-05-09T07:03:35.516Z,95939.00
2023-05-09T07:05:38.199Z,95962.41
2023-05-09T07:07:40.957Z,95960.00
2023-05-09T07:09:43.612Z,95963.25
2023-05-09T07:11:46.926Z,95964.06
2023-05-09T07:13:49.675Z,95961.69
2023-05-09T07:15:52.392Z,95953.81
2023-05-09T07:17:56.517Z,95950.00
2023-05-09T07:19:59.174Z,95939.69
2023-05-09T07:22:01.872Z,95938.31
2023-05-09T07:24:04.663Z,95944.81
2023-05-09T07:26:07.375Z,95930.94
2023-05-09T07:28:12.296Z,95935.19
2023-05-09T07:30:15.715Z,95928.34
2023-05-09T07:32:18.602Z,95924.38
2023-05-09T07:34:23.820Z,95922.06
2023-05-09T07:36:26.456Z,95914.28
2023-05-09T07:38:29.140Z,95907.75
2023-05-09T07:40:31.781Z,95914.69
2023-05-09T07:42:34.494Z,95910.19
2023-05-09T07:44:37.214Z,95909.34
2023-05-09T07:46:41.966Z,95920.03
2023-05-09T07:48:44.688Z,95920.09
2023-05-09T07:50:48.704Z,95913.59
2023-05-09T07:52:52.544Z,95907.41
2023-05-09T07:54:55.636Z,95909.03
2023-05-09T07:56:58.647Z,95895.16
2023-05-09T07:59:01.864Z,95896.78
2023-05-09T08:01:04.608Z,95897.53
2023-05-09T08:03:07.907Z,95894.56
2023-05-09T08:05:11.507Z,95891.56
2023-05-09T08:07:16.423Z,95884.16
2023-05-09T08:09:19.534Z,95880.72
2023-05-09T08:11:22.683Z,95880.34
2023-05-09T08:13:25.664Z,95879.09
2023-05-09T08:15:28.590Z,95882.00
2023-05-09T08:17:31.351Z,95879.03
2023-05-09T08:19:34.106Z,95871.03
2023-05-09T08:21:36.798Z,95879.72
2023-05-09T08:23:41.570Z,95875.00
2023-05-09T08:25:44.708Z,95874.06
2023-05-09T08:27:47.535Z,95824.22
2023-05-09T08:29:50.438Z,95868.50
2023-05-09T08:31:53.274Z,95870.84
2023-05-09T08:33:56.113Z,95861.19
2023-05-09T08:35:58.921Z,95858.50
2023-05-09T08:38:01.670Z,95856.19
2023-05-09T08:40:07.789Z,95852.25
2023-05-09T08:42:11.093Z,95835.31
2023-05-09T08:44:14.666Z,95837.84
2023-05-09T08:46:19.397Z,95850.06
2023-05-09T08:48:23.594Z,95842.22
2023-05-09T08:50:26.701Z,95846.38
2023-05-09T08:52:31.671Z,95842.69
2023-05-09T08:54:34.931Z,95841.69
2023-05-09T08:56:39.363Z,95832.78
2023-05-09T08:58:42.796Z,95833.47
2023-05-09T09:00:46.307Z,95842.44
2023-05-09T09:02:50.053Z,95734.03
2023-05-09T09:04:52.902Z,95836.63
2023-05-09T09:06:56.528Z,95838.47
2023-05-09T09:09:00.352Z,95833.31
2023-05-09T09:11:03.536Z,95833.00
2023-05-09T09:13:08.715Z,95831.19
2023-05-09T09:15:17.418Z,95827.66
2023-05-09T09:17:25.181Z,95802.81
2023-05-09T09:19:31.869Z,95737.47
2023-05-09T09:21:34.800Z,95810.88
2023-05-09T09:23:40.864Z,95801.56
2023-05-09T09:25:46.855Z,95806.38
2023-05-09T09:27:49.583Z,95807.13
2023-05-09T09:29:53.744Z,95795.59
2023-05-09T09:31:56.509Z,95808.50
2023-05-09T09:34:01.127Z,95797.38
2023-05-09T09:36:03.825Z,95785.88
2023-05-09T09:38:07.434Z,95783.25
2023-05-09T09:40:11.628Z,95774.72
2023-05-09T09:42:14.490Z,95771.34
2023-05-09T09:44:18.402Z,95776.84
2023-05-09T09:46:22.492Z,95772.66
2023-05-09T09:48:26.568Z,95761.00
2023-05-09T09:50:29.273Z,95761.28
2023-05-09T09:52:32.028Z,95758.91
2023-05-09T09:54:34.799Z,95758.56
2023-05-09T09:56:41.922Z,95762.25
2023-05-09T09:58:44.609Z,95752.53
2023-05-09T10:00:48.357Z,95751.94
2023-05-09T10:02:53.994Z,95747.91
2023-05-09T10:04:56.682Z,95736.66
2023-05-09T10:07:00.777Z,95711.06
2023-05-09T10:09:03.465Z,95742.03
2023-05-09T10:11:07.322Z,95732.03
2023-05-09T10:13:12.464Z,95727.38
2023-05-09T10:15:18.721Z,95734.25
2023-05-09T10:17:23.317Z,95719.56
2023-05-09T10:19:29.754Z,95721.69
2023-05-09T10:21:33.393Z,95711.28
2023-05-09T10:23:41.885Z,95715.28
2023-05-09T10:25:48.793Z,95707.19
2023-05-09T10:27:57.709Z,95701.88
2023-05-09T10:30:05.806Z,95666.91
2023-05-09T10:32:17.224Z,95703.41
2023-05-09T10:34:21.848Z,95697.50
2023-05-09T10:36:25.977Z,95696.03
2023-05-09T10:38:29.343Z,95703.34
2023-05-09T10:40:33.206Z,95702.75
2023-05-09T10:42:37.380Z,95692.25
2023-05-09T10:44:40.156Z,95691.00
2023-05-09T10:46:43.319Z,95685.03
2023-05-09T10:48:46.581Z,95687.56
2023-05-09T10:50:50.126Z,95674.75
2023-05-09T10:53:14.188Z,95676.81
2023-05-09T10:55:17.423Z,95670.75
2023-05-09T10:57:20.852Z,95625.53
2023-05-09T10:59:38.087Z,95646.16
2023-05-09T11:01:40.818Z,95649.25
2023-05-09T11:03:54.335Z,95637.25
2023-05-09T11:05:58.806Z,95649.25
2023-05-09T11:08:26.268Z,95642.63
2023-05-09T11:10:43.469Z,95637.81
2023-05-09T11:12:58.064Z,95624.34
2023-05-09T11:15:07.418Z,95632.47
2023-05-09T11:17:12.160Z,95633.94
2023-05-09T11:19:34.878Z,95532.56
2023-05-09T11:21:37.728Z,95628.06
2023-05-09T11:23:41.933Z,95621.88
2023-05-09T11:25:47.174Z,95579.34
2023-05-09T11:27:52.095Z,95615.13
2023-05-09T11:29:56.772Z,95618.34
2023-05-09T11:32:07.331Z,95613.50
2023-05-09T11:34:10.545Z,95616.09
2023-05-09T11:36:20.755Z,95607.81
2023-05-09T11:38:25.602Z,95591.22
2023-05-09T11:40:30.509Z,95596.03
2023-05-09T11:42:33.471Z,95542.31
2023-05-09T11:44:37.439Z,95593.81
2023-05-09T11:46:40.163Z,95588.16
2023-05-09T11:48:43.016Z,95567.84
2023-05-09T11:50:49.496Z,95570.84
2023-05-09T11:52:52.408Z,95581.91
2023-05-09T11:54:55.208Z,95576.13
2023-05-09T11:57:00.815Z,95566.91
2023-05-09T11:59:03.803Z,95568.75
2023-05-09T12:01:06.979Z,95510.22
2023-05-09T12:03:09.878Z,95558.09
2023-05-09T12:05:14.653Z,95500.13
2023-05-09T12:07:18.797Z,95547.16
2023-05-09T12:09:22.304Z,95547.28
2023-05-09T12:11:25.870Z,95537.03
2023-05-09T12:13:30.002Z,95533.22
2023-05-09T12:15:37.984Z,95530.16
2023-05-09T12:17:41.789Z,95524.66
2023-05-09T12:19:45.455Z,95522.25
2023-05-09T12:21:48.175Z,95514.00
2023-05-09T12:23:52.491Z,95513.06
2023-05-09T12:25:57.760Z,95502.63
2023-05-09T12:28:00.700Z,95501.59
2023-05-09T12:30:08.549Z,95498.69
2023-05-09T12:32:11.355Z,95491.91
2023-05-09T12:34:14.616Z,95491.84
2023-05-09T12:36:17.636Z,95486.38
2023-05-09T12:38:23.280Z,95486.50
2023-05-09T12:40:26.258Z,95476.81
2023-05-09T12:42:29.626Z,95485.25
2023-05-09T12:44:32.638Z,95470.56
2023-05-09T12:46:37.675Z,95477.38
2023-05-09T12:48:40.872Z,95435.28
2023-05-09T12:50:48.283Z,95478.06
2023-05-09T12:53:02.746Z,95401.34
2023-05-09T12:55:08.520Z,95471.47
2023-05-09T12:57:22.733Z,95475.81
2023-05-09T12:59:27.080Z,95468.31
2023-05-09T13:01:30.232Z,95417.94
2023-05-09T13:03:37.937Z,95467.59
2023-05-09T13:05:40.700Z,95471.25
2023-05-09T13:07:45.015Z,95467.44
2023-05-09T13:09:57.904Z,95457.50
2023-05-09T13:12:00.684Z,95456.63
2023-05-09T13:14:04.185Z,95465.66
2023-05-09T13:16:09.438Z,95369.38
2023-05-09T13:18:13.760Z,95447.53
2023-05-09T13:20:18.902Z,95445.44
2023-05-09T13:22:21.912Z,95402.28
2023-05-09T13:24:24.617Z,95452.69
2023-05-09T13:26:27.573Z,95443.19
2023-05-09T13:28:30.425Z,95413.63
2023-05-09T13:30:33.263Z,95280.22
2023-05-09T13:32:36.747Z,95425.88
2023-05-09T13:34:39.657Z,95431.59
2023-05-09T13:36:43.744Z,95418.81
2023-05-09T13:38:46.779Z,95391.19
2023-05-09T13:40:49.507Z,95408.06
2023-05-09T13:42:52.305Z,95408.84
2023-05-09T13:44:55.017Z,95410.00
2023-05-09T13:47:00.219Z,95399.44
2023-05-09T13:49:02.943Z,95406.50
2023-05-09T13:51:07.485Z,95398.22
2023-05-09T13:53:11.582Z,95393.06
2023-05-09T13:55:14.274Z,95383.50
2023-05-09T13:57:17.019Z,95383.13
2023-05-09T13:59:19.784Z,95330.94
2023-05-09T14:01:23.385Z,95383.31
2023-05-09T14:03:26.624Z,95334.22
2023-05-09T14:05:29.545Z,95375.50
2023-05-09T14:07:32.628Z,95378.53
2023-05-09T14:09:39.946Z,95369.09
2023-05-09T14:11:43.656Z,95376.22
2023-05-09T14:13:46.342Z,95367.38
2023-05-09T14:15:49.080Z,95367.16
2023-05-09T14:17:51.917Z,95388.38
2023-05-09T14:19:54.684Z,95362.66
2023-05-09T14:21:57.431Z,95360.69
2023-05-09T14:24:00.218Z,95356.59
2023-05-09T14:26:04.436Z,95358.31
2023-05-09T14:28:09.305Z,95354.03
2023-05-09T14:30:13.331Z,95332.34
2023-05-09T14:32:16.310Z,95350.91
2023-05-09T14:34:19.067Z,95345.63
2023-05-09T14:36:21.838Z,95281.72
2023-05-09T14:38:24.549Z,95335.53
2023-05-09T14:40:31.690Z,95338.56
2023-05-09T14:42:36.870Z,95334.56
2023-05-09T14:44:40.124Z,95333.41
2023-05-09T14:46:42.885Z,95331.75
2023-05-09T14:48:45.620Z,95337.53
2023-05-09T14:50:49.633Z,95333.56
2023-05-09T14:52:52.490Z,95337.56
2023-05-09T14:54:55.186Z,95330.81
2023-05-09T14:56:59.502Z,95323.94
2023-05-09T14:59:04.306Z,95334.50
2023-05-09T15:01:07.174Z,95319.91
2023-05-09T15:03:10.723Z,95330.38
2023-05-09T15:05:13.876Z,95232.13
2023-05-09T15:07:16.634Z,95316.28
2023-05-09T15:09:19.683Z,95307.38
2023-05-09T15:11:24.043Z,95315.09
2023-05-09T15:13:27.993Z,95306.78
2023-05-09T15:15:32.104Z,95277.78
2023-05-09T15:17:34.928Z,95308.91
2023-05-09T15:19:37.969Z,95266.16
2023-05-09T15:21:40.981Z,95313.28
2023-05-09T15:23:44.127Z,95246.91
2023-05-09T15:25:47.063Z,95301.47
2023-05-09T15:27:50.368Z,95225.88
2023-05-09T15:29:53.155Z,95298.38
2023-05-09T15:31:57.267Z,95305.34
2023-05-09T15:34:00.678Z,95288.88
2023-05-09T15:36:03.424Z,95286.28
2023-05-09T15:38:07.809Z,95277.75
2023-05-09T15:40:11.050Z,95278.81
2023-05-09T15:42:14.627Z,95159.56
2023-05-09T15:44:17.339Z,95278.78
2023-05-09T15:46:20.263Z,95269.63
2023-05-09T15:48:24.827Z,95264.38
2023-05-09T15:50:27.683Z,95254.38
2023-05-09T15:52:30.435Z,95267.34
2023-05-09T15:54:33.705Z,95213.56
2023-05-09T15:56:36.602Z,95281.06
2023-05-09T15:58:40.299Z,95278.59
2023-05-09T16:00:43.153Z,95308.88
2023-05-09T16:02:45.985Z,95274.97
2023-05-09T16:04:50.146Z,95278.34
2023-05-09T16:06:52.880Z,95221.91
2023-05-09T16:08:55.726Z,95279.75
2023-05-09T16:11:00.840Z,95267.56
2023-05-09T16:13:03.632Z,95263.72
2023-05-09T16:15:07.683Z,95261.69
2023-05-09T16:17:10.379Z,95184.84
2023-05-09T16:19:13.149Z,95271.97
2023-05-09T16:21:18.122Z,95237.53
2023-05-09T16:23:21.056Z,95267.00
2023-05-09T16:25:24.056Z,95271.16
2023-05-09T16:27:26.805Z,95259.31
2023-05-09T16:29:29.579Z,95260.38
2023-05-09T16:31:34.795Z,95273.53
2023-05-09T16:33:38.277Z,95277.53
2023-05-09T16:35:41.095Z,95275.66
2023-05-09T16:37:45.143Z,95271.72
2023-05-09T16:39:47.861Z,95277.34
2023-05-09T16:41:50.624Z,95267.97
2023-05-09T16:43:53.761Z,95274.31
2023-05-09T16:45:56.454Z,95274.44
2023-05-09T16:48:01.488Z,95275.16
2023-05-09T16:50:05.717Z,95269.97
2023-05-09T16:52:08.417Z,95279.31
2023-05-09T16:54:12.907Z,95276.38
2023-05-09T16:56:15.579Z,95280.56
2023-05-09T16:58:18.292Z,95290.44
2023-05-09T17:00:22.232Z,95289.97
2023-05-09T17:02:24.890Z,95290.38
2023-05-09T17:04:27.771Z,95303.03
2023-05-09T17:06:30.593Z,95262.47
2023-05-09T17:08:33.378Z,95291.97
2023-05-09T17:10:38.474Z,95306.25
2023-05-09T17:12:42.413Z,95297.63
2023-05-09T17:14:45.527Z,95303.16
2023-05-09T17:16:48.398Z,95278.72
2023-05-09T17:18:51.988Z,95291.78
2023-05-09T17:20:54.716Z,95280.53
2023-05-09T17:22:57.484Z,95286.28
2023-05-09T17:25:00.193Z,95217.66
2023-05-09T17:27:05.866Z,95285.47
2023-05-09T17:29:08.584Z,95285.16
2023-05-09T17:31:11.419Z,95275.53
2023-05-09T17:33:15.009Z,95270.44
2023-05-09T17:35:19.342Z,95283.97
2023-05-09T17:37:22.058Z,95284.56
2023-05-09T17:39:24.949Z,95265.22
2023-05-09T17:41:27.669Z,95262.13
2023-05-09T17:43:31.928Z,95274.00
2023-05-09T17:45:34.672Z,95276.75
2023-05-09T17:47:37.844Z,95280.84
2023-05-09T17:49:40.658Z,95271.41
2023-05-09T17:51:43.565Z,95275.31
2023-05-09T17:53:46.736Z,95278.69
2023-05-09T17:55:49.440Z,95271.69
2023-05-09T17:57:52.101Z,95277.50
2023-05-09T17:59:56.195Z,95282.06
2023-05-09T18:01:59.068Z,95259.06
2023-05-09T18:04:01.937Z,95179.75
2023-05-09T18:06:05.012Z,95254.09
2023-05-09T18:08:07.713Z,95251.16
2023-05-09T18:10:11.522Z,95276.38
2023-05-09T18:12:14.222Z,95270.50
2023-05-09T18:14:17.123Z,95270.00
2023-05-09T18:16:21.482Z,95270.59
2023-05-09T18:18:24.216Z,95281.75
2023-05-09T18:20:26.906Z,95225.84
2023-05-09T18:22:29.677Z,95280.25
2023-05-09T18:24:32.368Z,95284.03
2023-05-09T18:26:35.070Z,95255.41
2023-05-09T18:28:40.210Z,95282.63
2023-05-09T18:30:43.638Z,95289.72
2023-05-09T18:32:47.979Z,95281.31
2023-05-09T18:34:50.724Z,95283.28
2023-05-09T18:36:53.440Z,95286.53
2023-05-09T18:38:56.211Z,95285.56
2023-05-09T18:40:58.949Z,95281.41
2023-05-09T18:43:01.744Z,95278.63
2023-05-09T18:45:05.798Z,95278.34
2023-05-09T18:47:08.749Z,95274.97
2023-05-09T18:49:12.997Z,95281.84
2023-05-09T18:51:16.115Z,95282.00
2023-05-09T18:53:18.844Z,95285.28
2023-05-09T18:55:22.292Z,95287.53
2023-05-09T18:57:25.049Z,95280.53
2023-05-09T18:59:27.815Z,95281.78
2023-05-09T19:01:30.627Z,95281.84
2023-05-09T19:03:33.514Z,95286.88
2023-05-09T19:05:37.760Z,95289.50
2023-05-09T19:07:40.518Z,95284.38
2023-05-09T19:09:43.492Z,95286.94
2023-05-09T19:11:46.250Z,95290.44
2023-05-09T19:13:49.438Z,95285.50
2023-05-09T19:15:52.629Z,95290.59
2023-05-09T19:17:55.333Z,95286.22
2023-05-09T19:19:58.202Z,95264.66
2023-05-09T19:22:02.396Z,95291.19
2023-05-09T19:24:06.334Z,95292.81
2023-05-09T19:26:09.782Z,95299.22
2023-05-09T19:28:14.549Z,95307.72
2023-05-09T19:30:17.913Z,95305.16
2023-05-09T19:32:20.744Z,95300.75
2023-05-09T19:34:23.941Z,95234.06
2023-05-09T19:36:26.726Z,95177.84
2023-05-09T19:38:31.151Z,95311.00
2023-05-09T19:40:34.056Z,95305.00
2023-05-09T19:42:37.802Z,95313.63
2023-05-09T19:44:40.490Z,95316.41
2023-05-09T19:46:43.727Z,95281.63
2023-05-09T19:48:46.567Z,95313.78
2023-05-09T19:50:49.225Z,95288.28
2023-05-09T19:52:51.982Z,95309.47
2023-05-09T19:54:56.129Z,95270.88
2023-05-09T19:56:58.806Z,95311.28
2023-05-09T19:59:01.777Z,95306.16
2023-05-09T20:01:06.846Z,95307.19
2023-05-09T20:03:09.852Z,95313.69
2023-05-09T20:05:12.681Z,95312.09
2023-05-09T20:07:15.553Z,95305.06
2023-05-09T20:09:20.909Z,95302.97
2023-05-09T20:11:25.007Z,95308.94
2023-05-09T20:13:27.929Z,95304.41
2023-05-09T20:15:31.165Z,95314.94
2023-05-09T20:17:34.018Z,95303.03
2023-05-09T20:19:36.926Z,95295.50
2023-05-09T20:21:39.632Z,95277.81
2023-05-09T20:23:42.338Z,95300.09
2023-05-09T20:25:45.023Z,95296.69
2023-05-09T20:27:49.086Z,95305.88
2023-05-09T20:29:51.831Z,95243.53
2023-05-09T20:31:54.629Z,95295.72
2023-05-09T20:33:58.385Z,95299.75
2023-05-09T20:36:01.056Z,95274.53
2023-05-09T20:38:04.543Z,95293.25
2023-05-09T20:40:08.529Z,95298.50
2023-05-09T20:42:11.485Z,95301.13
2023-05-09T20:44:16.252Z,95242.59
2023-05-09T20:46:18.990Z,95294.34
2023-05-09T20:48:23.494Z,95296.53
2023-05-09T20:50:26.186Z,95300.84
2023-05-09T20:52:28.884Z,95263.56
2023-05-09T20:54:31.968Z,95302.25
2023-05-09T20:56:35.423Z,95295.44
2023-05-09T20:58:38.232Z,95298.00
2023-05-09T21:00:42.465Z,95269.88
2023-05-09T21:02:45.395Z,95290.53
2023-05-09T21:04:48.167Z,95293.53
2023-05-09T21:06:50.836Z,95249.88
2023-05-09T21:08:53.496Z,95289.97
2023-05-09T21:10:56.159Z,95274.75
2023-05-09T21:12:58.928Z,95267.56
2023-05-09T21:15:03.021Z,95289.53
2023-05-09T21:17:07.023Z,95287.09
2023-05-09T21:19:09.681Z,95286.53
2023-05-09T21:21:12.443Z,95285.44
2023-05-09T21:23:15.402Z,95287.84
2023-05-09T21:25:18.110Z,95288.44
2023-05-09T21:27:20.824Z,95287.47
2023-05-09T21:29:23.555Z,95286.88
2023-05-09T21:31:26.674Z,95284.13
2023-05-09T21:33:31.013Z,95279.28
2023-05-09T21:35:33.747Z,95282.50
2023-05-09T21:37:36.408Z,95282.50
2023-05-09T21:39:39.449Z,95282.00
2023-05-09T21:41:42.996Z,95279.00
2023-05-09T21:43:45.899Z,95277.47
2023-05-09T21:45:48.662Z,95281.56
2023-05-09T21:47:51.555Z,95278.88
2023-05-09T21:49:56.212Z,95287.00
2023-05-09T21:51:59.066Z,95283.34
2023-05-09T21:54:02.243Z,95284.28
2023-05-09T21:56:06.075Z,95286.63
2023-05-09T21:58:08.800Z,95284.06
2023-05-09T22:00:15.168Z,95275.75
2023-05-09T22:02:18.500Z,95277.47
2023-05-09T22:04:21.254Z,95283.09
2023-05-09T22:06:25.453Z,95278.06
2023-05-09T22:08:28.220Z,95276.44
2023-05-09T22:10:30.965Z,95284.63
2023-05-09T22:12:34.867Z,95289.22
2023-05-09T22:14:48.633Z,95283.38
2023-05-09T22:16:58.393Z,95283.00
2023-05-09T22:19:01.140Z,95250.63
2023-05-09T22:21:03.880Z,95286.81
2023-05-09T22:23:08.466Z,95285.78
2023-05-09T22:25:11.515Z,95204.00
2023-05-09T22:27:14.313Z,95276.88
2023-05-09T22:29:17.628Z,95222.03
2023-05-09T22:31:20.601Z,95276.94
2023-05-09T22:33:23.397Z,95280.94
2023-05-09T22:35:26.405Z,95230.63
2023-05-09T22:37:29.113Z,95269.47
2023-05-09T22:39:33.183Z,95284.59
2023-05-09T22:41:35.970Z,95287.41
2023-05-09T22:43:39.782Z,95285.22
2023-05-09T22:45:42.789Z,95277.63
2023-05-09T22:47:45.513Z,95278.91
2023-05-09T22:49:48.247Z,95289.34
2023-05-09T22:51:50.945Z,95293.72
2023-05-09T22:53:53.925Z,95298.59
2023-05-09T22:55:58.030Z,95284.00
2023-05-09T22:58:00.776Z,95290.44
2023-05-09T23:00:04.629Z,95295.28
2023-05-09T23:02:07.357Z,95184.00
2023-05-09T23:04:10.074Z,95299.94
2023-05-09T23:06:12.925Z,95302.09
2023-05-09T23:08:15.917Z,95231.50
2023-05-09T23:10:18.807Z,95235.09
2023-05-09T23:12:23.080Z,95301.31
2023-05-09T23:14:25.842Z,95232.63
2023-05-09T23:16:28.520Z,95298.66
2023-05-09T23:18:31.173Z,95294.63
2023-05-09T23:20:33.841Z,95301.34
2023-05-09T23:22:36.562Z,95295.44
2023-05-09T23:24:39.205Z,95296.25
2023-05-09T23:26:41.859Z,95295.44
2023-05-09T23:28:45.842Z,95298.88
2023-05-09T23:30:48.560Z,95302.72
2023-05-09T23:32:51.276Z,95290.84
2023-05-09T23:34:53.963Z,95302.44
2023-05-09T23:36:56.639Z,95293.25
2023-05-09T23:38:59.432Z,95274.28
2023-05-09T23:41:02.120Z,95290.16
2023-05-09T23:43:04.886Z,95294.97
2023-05-09T23:45:10.372Z,95286.88
2023-05-09T23:47:13.134Z,95265.91
2023-05-09T23:49:15.867Z,95279.06
2023-05-09T23:51:20.310Z,95286.88
2023-05-09T23:53:23.013Z,95290.34
2023-05-09T23:55:25.690Z,95293.91
2023-05-09T23:57:28.687Z,95305.88
2023-05-09T23:59:31.392Z,95304.44
